Time;durP1;ratioP1;P1;durP2;ratioP2;P2;SDS_P1;SDS_P2;PMS_P1;PMS_P2;Temp;Humidity;BMP_temperature;BMP_pressure;BME280_temperature;BME280_humidity;BME280_pressure;Samples;Min_cycle;Max_cycle;Signal;HPM_P1;HPM_P2
2023/09/04 00:01:37;;;;;;;;;;;;;;;22.15;55.87;95344.84;5136048;27;1067;-61
2023/09/04 00:04:03;;;;;;;;;;;;;;;21.97;55.86;95353.88;5117397;27;1075;-61
2023/09/04 00:06:30;;;;;;;;;;;;;;;21.87;57.36;95348.94;5122666;27;1207;-61
2023/09/04 00:08:59;;;;;;;;;;;;;;;21.82;56.57;95349.63;5114814;28;1090;-61
2023/09/04 00:11:26;;;;;;;;;;;;;;;21.74;56.54;95357.25;5114774;28;2015;-61
2023/09/04 00:13:53;;;;;;;;;;;;;;;21.70;57.57;95362.31;5115207;28;1155;-61
2023/09/04 00:16:19;;;;;;;;;;;;;;;21.70;57.46;95358.78;5114799;28;1035;-61
2023/09/04 00:18:46;;;;;;;;;;;;;;;21.73;58.23;95366.50;5114942;28;1046;-61
2023/09/04 00:21:12;;;;;;;;;;;;;;;21.83;58.25;95356.75;5108274;28;1209;-61
2023/09/04 00:23:38;;;;;;;;;;;;;;;21.76;58.15;95366.03;5094379;28;1012;-60
2023/09/04 00:26:04;;;;;;;;;;;;;;;21.64;59.08;95361.34;5094294;28;992;-61
2023/09/04 00:28:30;;;;;;;;;;;;;;;21.59;58.77;95358.47;5094448;28;984;-61
2023/09/04 00:30:57;;;;;;;;;;;;;;;21.62;59.06;95354.47;5094107;28;1909;-61
2023/09/04 00:33:23;;;;;;;;;;;;;;;21.55;60.51;95340.94;5094371;28;953;-61
2023/09/04 00:35:49;;;;;;;;;;;;;;;21.47;61.73;95351.28;5094424;28;1118;-60
2023/09/04 00:38:15;;;;;;;;;;;;;;;21.42;61.57;95350.03;5093952;28;1084;-60
2023/09/04 00:40:41;;;;;;;;;;;;;;;21.19;62.89;95342.50;5094029;28;1083;-61
2023/09/04 00:43:07;;;;;;;;;;;;;;;21.06;65.66;95337.19;5094230;28;1075;-61
2023/09/04 00:45:34;;;;;;;;;;;;;;;20.91;66.75;95328.53;5093870;28;1048;-61
2023/09/04 00:48:01;;;;;;;;;;;;;;;20.77;68.62;95323.19;5094228;28;1052;-61
2023/09/04 00:50:27;;;;;;;;;;;;;;;20.72;68.49;95323.03;5093786;28;1037;-61
2023/09/04 00:52:59;;;;;;;;;;;;;;;20.80;69.44;95321.91;5093735;28;1979;-61
2023/09/04 00:55:25;;;;;;;;;;;;;;;20.75;70.51;95319.84;5093995;28;1048;-61
2023/09/04 00:57:51;;;;;;;;;;;;;;;20.67;71.14;95310.09;5094009;28;1045;-61
2023/09/04 01:00:21;;;;;;;;;;;;;;;20.57;73.96;95311.63;5093939;28;960;-61
2023/09/04 01:02:48;;;;;;;;;;;;;;;20.43;74.69;95306.28;5094014;28;1052;-61
2023/09/04 01:05:14;;;;;;;;;;;;;;;20.33;75.93;95305.91;5095520;28;1128;-61
2023/09/04 01:07:41;;;;;;;;;;;;;;;20.19;77.91;95304.31;5095823;28;1036;-61
2023/09/04 01:10:08;;;;;;;;;;;;;;;19.89;79.69;95296.75;5113940;28;1083;-61
2023/09/04 01:12:51;;;;;;;;;;;;;;;19.48;83.55;95292.47;5113775;28;1905;-61
2023/09/04 01:15:17;;;;;;;;;;;;;;;19.40;82.50;95282.69;5113907;28;1087;-61
2023/09/04 01:17:46;;;;;;;;;;;;;;;19.52;82.49;95282.88;5113856;28;1115;-61
2023/09/04 01:20:23;;;;;;;;;;;;;;;19.70;80.88;95277.59;5113037;28;987;-60
2023/09/04 01:22:49;;;;;;;;;;;;;;;19.81;80.90;95269.88;5133970;27;1200;-61
2023/09/04 01:25:15;;;;;;;;;;;;;;;19.74;82.88;95279.91;5134213;27;1055;-61
2023/09/04 01:27:45;;;;;;;;;;;;;;;19.66;84.12;95268.22;5134452;28;1101;-61
2023/09/04 01:30:21;;;;;;;;;;;;;;;19.56;84.13;95278.69;5134507;28;1063;-61
2023/09/04 01:32:51;;;;;;;;;;;;;;;19.51;83.74;95265.75;5134295;28;1988;-61
2023/09/04 01:35:20;;;;;;;;;;;;;;;19.54;83.57;95256.38;5134354;28;1025;-61
2023/09/04 01:37:47;;;;;;;;;;;;;;;19.59;83.37;95250.31;5134461;28;964;-61
2023/09/04 01:40:13;;;;;;;;;;;;;;;19.53;83.99;95243.84;5134291;28;959;-62
2023/09/04 01:42:39;;;;;;;;;;;;;;;19.40;85.08;95230.34;5134304;28;1071;-61
2023/09/04 01:45:05;;;;;;;;;;;;;;;19.24;85.46;95221.66;5134734;28;1048;-60
2023/09/04 01:47:31;;;;;;;;;;;;;;;19.28;84.94;95217.47;5134014;28;1000;-61
2023/09/04 01:49:57;;;;;;;;;;;;;;;19.35;84.17;95222.88;5115974;28;921;-61
2023/09/04 01:52:23;;;;;;;;;;;;;;;19.33;84.14;95224.13;5134000;28;1905;-61
2023/09/04 01:54:49;;;;;;;;;;;;;;;19.28;84.29;95228.31;5134429;28;1218;-61
2023/09/04 01:57:16;;;;;;;;;;;;;;;19.07;85.43;95225.88;5134188;28;1039;-61
2023/09/04 01:59:42;;;;;;;;;;;;;;;18.96;86.52;95223.81;5134163;28;1035;-61
2023/09/04 02:02:08;;;;;;;;;;;;;;;18.87;86.64;95224.00;5134526;28;1031;-61
2023/09/04 02:04:34;;;;;;;;;;;;;;;18.79;87.26;95224.22;5134211;28;1067;-61
2023/09/04 02:07:00;;;;;;;;;;;;;;;18.78;86.87;95224.41;5116854;28;1130;-62
2023/09/04 02:09:26;;;;;;;;;;;;;;;18.83;86.61;95220.06;5113500;28;954;-62
2023/09/04 02:11:52;;;;;;;;;;;;;;;18.85;86.81;95219.88;5095372;28;1914;-61
2023/09/04 02:14:18;;;;;;;;;;;;;;;18.81;87.36;95216.75;5095550;28;974;-61
2023/09/04 02:16:44;;;;;;;;;;;;;;;18.78;86.20;95208.16;5113259;28;1273;-61
2023/09/04 02:19:10;;;;;;;;;;;;;;;18.75;86.71;95198.59;5095406;28;985;-61
2023/09/04 02:21:36;;;;;;;;;;;;;;;18.59;87.11;95193.63;5103725;28;1157;-61
2023/09/04 02:24:02;;;;;;;;;;;;;;;18.51;85.61;95190.06;5093069;28;996;-61
2023/09/04 02:26:28;;;;;;;;;;;;;;;18.58;84.74;95197.38;5093083;28;1036;-61
2023/09/04 02:28:54;;;;;;;;;;;;;;;18.49;86.08;95197.56;5093191;28;996;-61
2023/09/04 02:31:20;;;;;;;;;;;;;;;18.39;86.19;95205.28;5093021;28;1898;-61
2023/09/04 02:33:46;;;;;;;;;;;;;;;18.38;87.06;95209.03;5096534;28;1029;-60
2023/09/04 02:36:12;;;;;;;;;;;;;;;18.20;87.01;95200.72;5096417;28;1103;-63
2023/09/04 02:38:38;;;;;;;;;;;;;;;17.95;88.73;95209.44;5078652;28;1058;-63
2023/09/04 02:41:04;;;;;;;;;;;;;;;17.88;87.94;95214.00;5096407;28;1091;-63
2023/09/04 02:43:30;;;;;;;;;;;;;;;17.93;87.50;95217.75;5096326;28;973;-62
2023/09/04 02:45:57;;;;;;;;;;;;;;;18.11;87.13;95217.13;5096252;28;1052;-62
2023/09/04 02:48:23;;;;;;;;;;;;;;;18.18;85.77;95224.44;5096506;28;1052;-61
2023/09/04 02:50:49;;;;;;;;;;;;;;;18.28;85.30;95227.56;5096441;28;1993;-63
2023/09/04 02:53:15;;;;;;;;;;;;;;;18.29;85.86;95226.53;5096504;28;1049;-58
2023/09/04 02:55:50;;;;;;;;;;;;;;;18.26;85.43;95227.78;5096400;28;1045;-63
2023/09/04 02:58:17;;;;;;;;;;;;;;;18.36;85.97;95229.22;5096060;28;1051;-62
2023/09/04 03:00:43;;;;;;;;;;;;;;;18.37;85.37;95230.91;5095960;28;1135;-63
2023/09/04 03:03:09;;;;;;;;;;;;;;;18.41;84.36;95234.88;5096243;28;1000;-62
2023/09/04 03:05:35;;;;;;;;;;;;;;;18.57;83.31;95225.47;5100959;28;1295;-63
2023/09/04 03:08:02;;;;;;;;;;;;;;;18.52;82.95;95223.41;5120336;27;2536;-63
2023/09/04 03:10:30;;;;;;;;;;;;;;;18.25;84.39;95220.72;5136707;27;1040;-62
2023/09/04 03:12:56;;;;;;;;;;;;;;;17.93;85.51;95211.50;5136722;27;1894;-62
2023/09/04 03:15:22;;;;;;;;;;;;;;;17.63;86.78;95217.22;5136583;27;995;-62
2023/09/04 03:17:48;;;;;;;;;;;;;;;17.65;87.17;95217.84;5136658;27;1055;-62
2023/09/04 03:20:19;;;;;;;;;;;;;;;17.71;86.96;95227.84;5135332;27;2536;-63
2023/09/04 03:22:45;;;;;;;;;;;;;;;17.73;86.96;95217.66;5136811;27;1209;-63
2023/09/04 03:25:11;;;;;;;;;;;;;;;17.65;87.38;95231.38;5136598;27;991;-63
2023/09/04 03:27:37;;;;;;;;;;;;;;;17.68;86.74;95230.13;5136519;27;961;-63
2023/09/04 03:30:04;;;;;;;;;;;;;;;17.61;86.75;95235.53;5136424;27;1047;-63
2023/09/04 03:32:30;;;;;;;;;;;;;;;17.65;87.44;95225.13;5136560;27;1901;-62
2023/09/04 03:34:56;;;;;;;;;;;;;;;17.61;87.76;95232.81;5136540;27;978;-62
2023/09/04 03:37:22;;;;;;;;;;;;;;;17.51;87.31;95222.38;5136535;27;977;-63
2023/09/04 03:39:48;;;;;;;;;;;;;;;17.28;88.51;95228.13;5136258;27;1040;-64
2023/09/04 03:42:14;;;;;;;;;;;;;;;17.69;86.69;95229.09;5136187;27;978;-63
2023/09/04 03:44:40;;;;;;;;;;;;;;;17.93;85.73;95227.75;5135860;27;985;-63
2023/09/04 03:47:06;;;;;;;;;;;;;;;17.68;87.73;95225.56;5136450;27;973;-62
2023/09/04 03:49:32;;;;;;;;;;;;;;;17.55;88.48;95222.81;5136188;27;1041;-62
2023/09/04 03:51:58;;;;;;;;;;;;;;;17.86;85.44;95230.41;5135855;27;1976;-62
2023/09/04 03:54:23;;;;;;;;;;;;;;;17.79;86.81;95226.81;5135828;27;1095;-62
2023/09/04 03:56:50;;;;;;;;;;;;;;;17.88;85.45;95228.34;5135851;27;1031;-62
2023/09/04 03:59:16;;;;;;;;;;;;;;;18.08;83.45;95231.09;5135703;27;1153;-62
2023/09/04 04:01:43;;;;;;;;;;;;;;;18.37;80.26;95234.44;5136027;27;1029;-58
2023/09/04 04:04:11;;;;;;;;;;;;;;;18.54;77.22;95232.16;5135976;27;1032;-59
2023/09/04 04:06:37;;;;;;;;;;;;;;;18.62;76.95;95240.06;5121913;27;1223;-59
2023/09/04 04:09:03;;;;;;;;;;;;;;;18.53;78.51;95236.75;5115131;28;1094;-60
2023/09/04 04:11:29;;;;;;;;;;;;;;;18.54;76.24;95238.41;5114880;28;1902;-59
2023/09/04 04:13:55;;;;;;;;;;;;;;;18.62;75.57;95239.25;5114934;28;1059;-60
2023/09/04 04:16:21;;;;;;;;;;;;;;;18.70;74.68;95248.00;5115116;28;1010;-60
2023/09/04 04:18:47;;;;;;;;;;;;;;;18.63;73.67;95239.03;5114916;28;964;-60
2023/09/04 04:21:13;;;;;;;;;;;;;;;18.55;75.53;95241.94;5108536;28;1213;-60
2023/09/04 04:23:39;;;;;;;;;;;;;;;18.48;76.72;95241.13;5094476;28;1072;-60
2023/09/04 04:26:05;;;;;;;;;;;;;;;18.55;76.51;95239.22;5094292;28;998;-59
2023/09/04 04:28:31;;;;;;;;;;;;;;;18.51;76.66;95236.09;5094204;28;1052;-59
2023/09/04 04:31:00;;;;;;;;;;;;;;;18.45;76.03;95228.00;5076359;28;1917;-59
2023/09/04 04:33:26;;;;;;;;;;;;;;;18.42;78.09;95231.97;5094204;28;1037;-59
2023/09/04 04:35:53;;;;;;;;;;;;;;;18.37;78.07;95230.91;5094222;28;1103;-58
2023/09/04 04:38:19;;;;;;;;;;;;;;;18.51;74.43;95227.16;5076393;28;960;-59
2023/09/04 04:40:45;;;;;;;;;;;;;;;18.40;75.91;95220.50;5094190;28;953;-60
2023/09/04 04:43:11;;;;;;;;;;;;;;;18.21;78.57;95226.72;5094194;28;1003;-59
2023/09/04 04:45:37;;;;;;;;;;;;;;;18.10;77.54;95229.00;5094042;28;1048;-59
2023/09/04 04:48:03;;;;;;;;;;;;;;;18.05;78.58;95228.78;5093950;28;1040;-59
2023/09/04 04:50:29;;;;;;;;;;;;;;;18.18;76.68;95227.16;5093878;28;1041;-59
2023/09/04 04:52:55;;;;;;;;;;;;;;;18.21;77.82;95227.56;5093856;28;1898;-59
2023/09/04 04:55:21;;;;;;;;;;;;;;;18.27;74.67;95224.03;5093029;28;968;-59
2023/09/04 04:57:48;;;;;;;;;;;;;;;18.37;75.14;95226.31;5093812;28;1052;-59
2023/09/04 05:00:14;;;;;;;;;;;;;;;18.36;76.87;95229.22;5075995;28;1041;-58
2023/09/04 05:02:40;;;;;;;;;;;;;;;18.35;76.80;95228.41;5094131;28;1030;-58
2023/09/04 05:05:07;;;;;;;;;;;;;;;18.39;77.49;95226.94;5094595;28;1151;-60
2023/09/04 05:07:33;;;;;;;;;;;;;;;18.41;77.78;95221.34;5113972;28;1033;-59
2023/09/04 05:09:59;;;;;;;;;;;;;;;18.38;79.68;95219.84;5095980;28;1986;-59
2023/09/04 05:12:25;;;;;;;;;;;;;;;18.47;79.72;95226.72;5113819;28;1987;-58
2023/09/04 05:14:51;;;;;;;;;;;;;;;18.64;74.92;95215.50;5113997;28;1111;-58
2023/09/04 05:17:17;;;;;;;;;;;;;;;18.74;73.78;95221.31;5114005;28;974;-58
2023/09/04 05:19:43;;;;;;;;;;;;;;;18.73;73.74;95219.66;5113991;28;993;-58
2023/09/04 05:22:09;;;;;;;;;;;;;;;18.82;74.65;95218.41;5128380;27;1184;-58
2023/09/04 05:24:35;;;;;;;;;;;;;;;18.90;71.87;95220.91;5134719;27;972;-58
2023/09/04 05:28:03;;;;;;;;;;;;;;;19.11;68.87;95227.13;5116443;27;1331612;-58
2023/09/04 05:30:31;;;;;;;;;;;;;;;19.13;70.23;95227.72;5152453;27;977;-58
2023/09/04 05:32:57;;;;;;;;;;;;;;;19.23;69.99;95219.97;5152633;27;977;-58
2023/09/04 05:35:23;;;;;;;;;;;;;;;19.22;69.42;95221.03;5133886;27;1060;-57
2023/09/04 05:37:49;;;;;;;;;;;;;;;19.29;67.44;95218.28;5152274;27;1024;-57
2023/09/04 05:40:15;;;;;;;;;;;;;;;19.32;67.02;95212.44;5152366;27;1108;-58
2023/09/04 05:42:41;;;;;;;;;;;;;;;19.28;65.65;95209.34;5152525;27;1030;-58
2023/09/04 05:45:08;;;;;;;;;;;;;;;19.27;67.66;95210.41;5152392;27;1044;-58
2023/09/04 05:47:33;;;;;;;;;;;;;;;19.25;65.37;95220.59;5151946;27;1933;-58
2023/09/04 05:52:11;;;;;;;;;;;;;;;19.33;64.78;95211.41;5131971;27;1303238;-57
2023/09/04 05:54:37;;;;;;;;;;;;;;;19.28;64.23;95206.63;5173198;27;993;-58
2023/09/04 05:57:03;;;;;;;;;;;;;;;19.41;64.71;95204.91;5155051;27;977;-57
2023/09/04 05:59:29;;;;;;;;;;;;;;;19.47;67.21;95212.19;5173234;27;999;-58
2023/09/04 06:01:55;;;;;;;;;;;;;;;19.53;64.66;95205.91;5173357;27;1036;-58
2023/09/04 06:04:21;;;;;;;;;;;;;;;19.68;66.59;95211.88;5173016;27;1031;-57
2023/09/04 06:06:47;;;;;;;;;;;;;;;19.75;66.25;95206.47;5173260;27;963;-58
2023/09/04 06:09:14;;;;;;;;;;;;;;;19.81;64.72;95207.47;5173187;27;1012;-58
2023/09/04 06:11:40;;;;;;;;;;;;;;;19.86;65.89;95204.91;5172875;27;1980;-57
2023/09/04 06:14:06;;;;;;;;;;;;;;;19.90;66.09;95203.47;5173043;27;1034;-56
2023/09/04 06:16:33;;;;;;;;;;;;;;;20.02;65.23;95201.69;5172773;27;1039;-57
2023/09/04 06:18:59;;;;;;;;;;;;;;;20.15;65.17;95208.09;5173082;27;1035;-57
2023/09/04 06:21:25;;;;;;;;;;;;;;;20.16;63.00;95204.31;5164139;27;1282;-57
2023/09/04 06:23:51;;;;;;;;;;;;;;;20.22;62.70;95200.72;5151894;27;1080;-57
2023/09/04 06:26:18;;;;;;;;;;;;;;;20.35;62.64;95199.78;5151968;27;1027;-57
2023/09/04 06:28:44;;;;;;;;;;;;;;;20.28;62.00;95200.69;5151775;27;1020;-57
2023/09/04 06:31:10;;;;;;;;;;;;;;;20.41;62.90;95194.31;5151720;27;1945;-58
2023/09/04 06:33:37;;;;;;;;;;;;;;;20.28;62.75;95199.84;5151687;27;1036;-57
2023/09/04 06:36:04;;;;;;;;;;;;;;;20.39;60.50;95201.84;5151568;27;1028;-56
2023/09/04 06:38:30;;;;;;;;;;;;;;;20.36;58.20;95202.28;5151674;27;1015;-57
2023/09/04 06:40:59;;;;;;;;;;;;;;;20.38;59.58;95192.03;5133097;27;1060;-57
2023/09/04 06:43:27;;;;;;;;;;;;;;;20.51;60.83;95190.25;5151668;27;1065;-57
2023/09/04 06:45:53;;;;;;;;;;;;;;;20.47;61.85;95193.44;5151788;27;1003;-57
2023/09/04 06:48:20;;;;;;;;;;;;;;;20.43;59.26;95188.66;5151140;27;1000;-57
2023/09/04 06:50:52;;;;;;;;;;;;;;;20.44;59.87;95188.44;5133002;27;1909;-58
2023/09/04 06:53:18;;;;;;;;;;;;;;;20.42;61.00;95190.53;5151184;27;1020;-57
2023/09/04 06:55:47;;;;;;;;;;;;;;;20.44;59.39;95188.44;5151337;27;979;-57
2023/09/04 06:58:13;;;;;;;;;;;;;;;20.42;57.88;95184.28;5151147;27;966;-57
2023/09/04 07:00:39;;;;;;;;;;;;;;;20.49;58.03;95190.50;5151077;27;1040;-57
2023/09/04 07:03:05;;;;;;;;;;;;;;;20.48;59.40;95199.69;5140090;27;964;-57
2023/09/04 07:05:32;;;;;;;;;;;;;;;20.46;56.52;95201.78;5137425;27;1038;-57
2023/09/04 07:07:58;;;;;;;;;;;;;;;20.33;55.62;95199.19;5137299;27;952;-58
2023/09/04 07:10:24;;;;;;;;;;;;;;;20.33;56.32;95204.63;5137069;27;1914;-57
2023/09/04 07:12:50;;;;;;;;;;;;;;;20.25;56.20;95205.72;5137492;27;958;-57
2023/09/04 07:15:17;;;;;;;;;;;;;;;20.15;54.74;95205.38;5136957;27;1028;-57
2023/09/04 07:17:43;;;;;;;;;;;;;;;20.11;53.43;95206.84;5137211;27;1040;-57
2023/09/04 07:20:10;;;;;;;;;;;;;;;20.11;53.72;95204.13;5136914;27;917;-57
2023/09/04 07:22:37;;;;;;;;;;;;;;;20.15;52.96;95205.38;5137125;27;1237;-57
2023/09/04 07:25:04;;;;;;;;;;;;;;;20.24;54.67;95204.91;5137136;27;969;-58
2023/09/04 07:27:30;;;;;;;;;;;;;;;20.28;53.78;95200.69;5137047;27;1034;-57
2023/09/04 07:29:56;;;;;;;;;;;;;;;20.17;53.02;95204.09;5118480;27;1906;-57
2023/09/04 07:32:22;;;;;;;;;;;;;;;20.20;52.46;95206.34;5136838;27;967;-58
2023/09/04 07:34:48;;;;;;;;;;;;;;;20.23;52.98;95205.94;5136706;27;1039;-57
2023/09/04 07:37:14;;;;;;;;;;;;;;;20.23;52.45;95199.69;5136878;27;1021;-57
2023/09/04 07:39:40;;;;;;;;;;;;;;;20.24;51.69;95204.91;5136621;27;1047;-57
2023/09/04 07:42:06;;;;;;;;;;;;;;;20.23;52.21;95203.22;5136912;27;1027;-57
2023/09/04 07:44:32;;;;;;;;;;;;;;;20.30;52.14;95203.19;5136961;27;1002;-57
2023/09/04 07:46:58;;;;;;;;;;;;;;;20.38;52.17;95202.91;5135202;27;2600;-57
2023/09/04 07:49:24;;;;;;;;;;;;;;;20.48;51.29;95205.94;5136550;27;1040;-57
2023/09/04 07:51:51;;;;;;;;;;;;;;;20.55;51.63;95202.34;5136076;27;1983;-58
2023/09/04 07:54:17;;;;;;;;;;;;;;;20.73;51.20;95207.84;5136204;27;1052;-57
2023/09/04 07:56:43;;;;;;;;;;;;;;;20.92;49.75;95210.59;5136547;27;1095;-57
2023/09/04 07:59:09;;;;;;;;;;;;;;;20.91;50.80;95198.09;5118363;27;1041;-57
2023/09/04 08:01:35;;;;;;;;;;;;;;;21.50;48.41;95196.59;5136103;27;1079;-57
2023/09/04 08:04:01;;;;;;;;;;;;;;;22.07;48.11;95196.25;5136460;27;987;-57
2023/09/04 08:06:27;;;;;;;;;;;;;;;22.67;46.30;95208.97;5136195;27;1048;-57
2023/09/04 08:08:53;;;;;;;;;;;;;;;22.75;45.41;95205.91;5136109;27;1035;-57
2023/09/04 08:11:19;;;;;;;;;;;;;;;22.73;46.33;95221.66;5135814;27;1996;-57
2023/09/04 08:13:45;;;;;;;;;;;;;;;22.77;46.44;95211.13;5135085;27;1039;-58
2023/09/04 08:16:11;;;;;;;;;;;;;;;22.55;45.41;95211.66;5117671;27;1686;-57
2023/09/04 08:18:37;;;;;;;;;;;;;;;22.37;46.70;95209.03;5136063;27;970;-57
2023/09/04 08:21:03;;;;;;;;;;;;;;;22.28;47.20;95203.09;5135680;27;1193;-57
2023/09/04 08:23:29;;;;;;;;;;;;;;;22.15;46.83;95192.38;5135752;27;1049;-57
2023/09/04 08:25:59;;;;;;;;;;;;;;;22.20;48.55;95190.63;5135732;27;1095;-57
2023/09/04 08:28:25;;;;;;;;;;;;;;;22.11;48.73;95188.47;5135892;27;1024;-57
2023/09/04 08:30:51;;;;;;;;;;;;;;;22.03;48.54;95190.44;5135761;27;1914;-58
2023/09/04 08:33:17;;;;;;;;;;;;;;;21.93;48.26;95189.34;5135437;27;1067;-57
2023/09/04 08:35:43;;;;;;;;;;;;;;;21.77;48.58;95191.63;5117598;27;954;-57
2023/09/04 08:38:09;;;;;;;;;;;;;;;21.72;49.35;95193.38;5117206;27;1040;-57
2023/09/04 08:40:39;;;;;;;;;;;;;;;21.58;49.51;95203.63;5135524;27;1036;-57
2023/09/04 08:43:06;;;;;;;;;;;;;;;21.69;48.53;95202.84;5135633;27;1033;-57
2023/09/04 08:45:34;;;;;;;;;;;;;;;21.76;49.47;95197.31;5135141;27;1033;-57
2023/09/04 08:48:01;;;;;;;;;;;;;;;21.98;49.01;95205.81;5135512;27;1143;-56
2023/09/04 08:50:28;;;;;;;;;;;;;;;21.93;47.81;95203.78;5135220;27;1976;-57
2023/09/04 08:52:54;;;;;;;;;;;;;;;21.77;50.78;95194.38;5116912;27;1096;-57
2023/09/04 08:55:20;;;;;;;;;;;;;;;21.71;50.34;95195.28;5114520;28;1063;-57
2023/09/04 08:57:46;;;;;;;;;;;;;;;21.59;48.87;95194.41;5114427;28;1040;-57
2023/09/04 09:00:12;;;;;;;;;;;;;;;21.47;49.95;95191.59;5114618;28;1041;-57
2023/09/04 09:02:39;;;;;;;;;;;;;;;21.35;49.91;95196.13;5096629;28;961;-57
2023/09/04 09:05:07;;;;;;;;;;;;;;;21.26;51.60;95210.00;5114354;28;1091;-57
2023/09/04 09:07:34;;;;;;;;;;;;;;;21.22;51.32;95203.38;5114427;28;1015;-57
2023/09/04 09:10:02;;;;;;;;;;;;;;;21.15;51.63;95207.22;5114481;28;1906;-57
2023/09/04 09:12:29;;;;;;;;;;;;;;;21.04;52.02;95197.94;5114140;28;2002;-57
2023/09/04 09:14:58;;;;;;;;;;;;;;;21.11;51.29;95204.13;5114091;28;1060;-57
2023/09/04 09:17:24;;;;;;;;;;;;;;;21.14;52.25;95198.25;5114023;28;1102;-57
2023/09/04 09:19:50;;;;;;;;;;;;;;;21.15;52.96;95204.50;5114327;28;1026;-57
2023/09/04 09:22:16;;;;;;;;;;;;;;;21.13;52.25;95196.56;5098658;28;1311;-57
2023/09/04 09:24:53;;;;;;;;;;;;;;;21.13;51.49;95188.41;5093455;28;1091;-57
2023/09/04 09:27:20;;;;;;;;;;;;;;;21.16;51.81;95190.69;5093831;28;1023;-57
2023/09/04 09:29:47;;;;;;;;;;;;;;;21.30;52.12;95185.94;5093825;28;1056;-57
2023/09/04 09:32:15;;;;;;;;;;;;;;;21.45;51.84;95183.69;5093656;28;1906;-57
2023/09/04 09:34:41;;;;;;;;;;;;;;;21.40;52.33;95191.69;5093733;28;992;-57
2023/09/04 09:37:08;;;;;;;;;;;;;;;21.62;51.50;95191.22;5093823;28;1077;-57
2023/09/04 09:39:34;;;;;;;;;;;;;;;22.34;50.11;95188.53;5075493;28;1056;-57
2023/09/04 09:42:01;;;;;;;;;;;;;;;22.10;50.41;95193.09;5093378;28;1056;-57
2023/09/04 09:44:31;;;;;;;;;;;;;;;21.92;51.95;95191.22;5075680;28;958;-57
2023/09/04 09:46:57;;;;;;;;;;;;;;;21.86;50.68;95189.44;5093722;28;1032;-57
2023/09/04 09:49:23;;;;;;;;;;;;;;;22.12;51.48;95184.66;5093505;28;989;-57
2023/09/04 09:51:51;;;;;;;;;;;;;;;22.11;52.46;95191.19;5132209;27;2477;-57
2023/09/04 09:54:32;;;;;;;;;;;;;;;22.02;51.42;95182.50;5136529;27;1095;-57
2023/09/04 09:56:59;;;;;;;;;;;;;;;22.09;51.58;95182.41;5155222;27;1008;-57
2023/09/04 09:59:26;;;;;;;;;;;;;;;21.84;50.11;95180.69;5155055;27;1044;-57
2023/09/04 10:01:52;;;;;;;;;;;;;;;21.77;50.88;95175.31;5155036;27;983;-57
2023/09/04 10:04:21;;;;;;;;;;;;;;;21.58;51.73;95168.25;5154732;27;1032;-57
2023/09/04 10:06:47;;;;;;;;;;;;;;;21.53;51.64;95168.97;5154737;27;1036;-57
2023/09/04 10:09:16;;;;;;;;;;;;;;;21.39;51.11;95167.44;5154055;27;1025;-57
2023/09/04 10:11:44;;;;;;;;;;;;;;;21.37;52.97;95164.94;5154979;27;1913;-57
2023/09/04 10:14:16;;;;;;;;;;;;;;;21.51;52.98;95162.88;5154914;27;1026;-57
2023/09/04 10:16:48;;;;;;;;;;;;;;;21.67;51.97;95163.34;5154908;27;986;-57
2023/09/04 10:19:17;;;;;;;;;;;;;;;21.66;51.74;95165.22;5155234;27;1280;-57
2023/09/04 10:21:46;;;;;;;;;;;;;;;21.58;49.37;95170.97;5143707;27;1176;-57
2023/09/04 10:24:15;;;;;;;;;;;;;;;21.51;50.91;95160.16;5134316;28;957;-57
2023/09/04 10:26:46;;;;;;;;;;;;;;;21.37;52.00;95158.66;5134347;28;1047;-57
2023/09/04 10:29:16;;;;;;;;;;;;;;;21.28;52.96;95165.47;5133849;28;1040;-57
2023/09/04 10:31:43;;;;;;;;;;;;;;;21.33;53.07;95165.63;5133806;28;2000;-57
2023/09/04 10:34:10;;;;;;;;;;;;;;;21.39;53.26;95154.66;5133813;28;1016;-57
2023/09/04 10:36:38;;;;;;;;;;;;;;;21.21;54.33;95157.41;5134107;27;1043;-57
2023/09/04 10:39:05;;;;;;;;;;;;;;;20.97;54.83;95156.41;5137656;27;1024;-57
2023/09/04 10:41:31;;;;;;;;;;;;;;;20.95;54.78;95169.41;5137909;27;987;-57
2023/09/04 10:43:57;;;;;;;;;;;;;;;21.12;53.27;95169.63;5137781;27;987;-57
2023/09/04 10:46:23;;;;;;;;;;;;;;;21.25;53.14;95177.63;5137554;27;1905;-57
2023/09/04 10:48:50;;;;;;;;;;;;;;;21.37;54.50;95167.66;5137463;27;1095;-57
2023/09/04 10:51:29;;;;;;;;;;;;;;;21.42;53.04;95172.41;5136646;27;2546;-57
2023/09/04 10:53:56;;;;;;;;;;;;;;;21.43;54.80;95163.19;5137740;27;1048;-56
2023/09/04 10:56:22;;;;;;;;;;;;;;;21.49;55.35;95162.28;5137452;27;1026;-57
2023/09/04 10:59:02;;;;;;;;;;;;;;;21.45;54.92;95170.06;5137430;27;960;-57
2023/09/04 11:01:35;;;;;;;;;;;;;;;21.51;55.50;95164.78;5137441;27;988;-56
2023/09/04 11:04:05;;;;;;;;;;;;;;;21.36;54.36;95166.00;5137108;27;1027;-57
2023/09/04 11:06:41;;;;;;;;;;;;;;;21.34;54.59;95159.09;5137306;27;1052;-57
2023/09/04 11:09:11;;;;;;;;;;;;;;;21.40;54.82;95167.19;5137516;27;1059;-57
2023/09/04 11:11:37;;;;;;;;;;;;;;;21.50;54.02;95165.88;5137190;27;1909;-57
2023/09/04 11:14:06;;;;;;;;;;;;;;;21.36;55.13;95170.59;5137336;27;1007;-57
2023/09/04 11:16:35;;;;;;;;;;;;;;;21.49;55.64;95167.72;5137081;27;1062;-57
2023/09/04 11:19:02;;;;;;;;;;;;;;;21.66;54.59;95161.66;5137014;27;1115;-57
2023/09/04 11:21:35;;;;;;;;;;;;;;;21.60;53.39;95163.41;5137089;27;1209;-56
2023/09/04 11:24:02;;;;;;;;;;;;;;;21.55;54.25;95158.69;5137196;27;1007;-56
2023/09/04 11:26:29;;;;;;;;;;;;;;;21.49;53.23;95170.44;5136820;27;1047;-57
2023/09/04 11:28:59;;;;;;;;;;;;;;;21.47;53.08;95158.16;5136833;27;1043;-58
2023/09/04 11:31:26;;;;;;;;;;;;;;;21.43;54.97;95161.28;5136608;27;1906;-56
2023/09/04 11:33:53;;;;;;;;;;;;;;;21.20;55.37;95153.00;5136708;27;1016;-57
2023/09/04 11:36:19;;;;;;;;;;;;;;;21.16;54.17;95160.78;5136940;27;969;-56
2023/09/04 11:38:45;;;;;;;;;;;;;;;21.06;56.19;95152.34;5136611;27;1083;-56
2023/09/04 11:41:15;;;;;;;;;;;;;;;21.10;54.24;95153.53;5136556;27;1048;-57
2023/09/04 11:43:41;;;;;;;;;;;;;;;21.10;54.97;95152.72;5136840;27;1026;-57
2023/09/04 11:46:09;;;;;;;;;;;;;;;21.06;56.11;95152.34;5136797;27;1072;-56
2023/09/04 11:48:35;;;;;;;;;;;;;;;20.95;56.55;95164.78;5136423;27;1037;-56
2023/09/04 11:51:02;;;;;;;;;;;;;;;20.71;58.85;95158.34;5134246;27;1982;-57
2023/09/04 11:53:28;;;;;;;;;;;;;;;20.74;58.56;95160.63;5115716;28;1029;-56
2023/09/04 11:55:54;;;;;;;;;;;;;;;20.80;57.13;95165.16;5116187;28;1029;-57
2023/09/04 11:58:21;;;;;;;;;;;;;;;20.93;57.26;95163.38;5115893;28;1051;-57
2023/09/04 12:00:47;;;;;;;;;;;;;;;20.95;58.56;95159.34;5115865;28;1100;-56
2023/09/04 12:03:13;;;;;;;;;;;;;;;20.90;56.81;95161.09;5115643;28;1030;-56
2023/09/04 12:05:40;;;;;;;;;;;;;;;20.90;57.48;95161.91;5115645;28;1070;-57
2023/09/04 12:08:06;;;;;;;;;;;;;;;20.87;57.64;95162.38;5115555;28;1000;-57
2023/09/04 12:10:33;;;;;;;;;;;;;;;20.89;58.35;95154.81;5115247;28;1906;-57
2023/09/04 12:12:59;;;;;;;;;;;;;;;20.73;58.74;95156.22;5115426;28;1020;-56
2023/09/04 12:15:35;;;;;;;;;;;;;;;20.60;59.66;95165.34;5115248;28;1028;-57
2023/09/04 12:18:02;;;;;;;;;;;;;;;20.36;60.45;95160.75;5115328;28;934;-57
2023/09/04 12:20:35;;;;;;;;;;;;;;;20.24;61.35;95155.19;5114968;28;1236;-57
2023/09/04 12:23:01;;;;;;;;;;;;;;;20.28;61.74;95162.69;5094702;28;996;-57
2023/09/04 12:25:40;;;;;;;;;;;;;;;20.28;61.36;95165.38;5094646;28;1076;-57
2023/09/04 12:28:08;;;;;;;;;;;;;;;20.50;61.72;95164.16;5094942;28;957;-57
2023/09/04 12:30:35;;;;;;;;;;;;;;;20.52;62.15;95162.06;5094467;28;1910;-57
2023/09/04 12:33:04;;;;;;;;;;;;;;;20.53;61.05;95161.00;5094825;28;1044;-56
2023/09/04 12:35:31;;;;;;;;;;;;;;;20.47;63.41;95154.59;5094661;28;1060;-55
2023/09/04 12:37:57;;;;;;;;;;;;;;;20.52;60.53;95156.63;5094452;28;1040;-56
2023/09/04 12:40:23;;;;;;;;;;;;;;;20.48;62.23;95157.06;5094554;28;1031;-56
2023/09/04 12:42:49;;;;;;;;;;;;;;;20.36;62.52;95167.00;5094701;28;1064;-57
2023/09/04 12:45:15;;;;;;;;;;;;;;;20.28;62.31;95168.09;5094226;28;1025;-56
2023/09/04 12:47:41;;;;;;;;;;;;;;;20.20;61.09;95165.63;5094419;28;1072;-56
2023/09/04 12:50:08;;;;;;;;;;;;;;;20.02;60.98;95165.59;5094191;28;2005;-56
2023/09/04 12:52:34;;;;;;;;;;;;;;;19.92;62.69;95162.50;5087593;28;1142;-56
2023/09/04 12:55:00;;;;;;;;;;;;;;;19.78;63.31;95169.91;5107829;28;2576;-56
2023/09/04 12:57:27;;;;;;;;;;;;;;;19.64;66.03;95166.44;5114756;28;1128;-57
2023/09/04 12:59:53;;;;;;;;;;;;;;;19.45;66.46;95168.19;5114097;28;1043;-57